Sunday, November 19, 2017, 12:00 AM EST
Back to Local

KMMU, Morristown Municipal

Location: Morristown, NJ, United States Lat: 40.8
Local Time: 12:00 AM EST ( 5:00 GMT) Lon: -74.417
Time Zone: US/Eastern Elev: 187 ft

Show me the last for .
Show Decoded

2017-11-18 23:35 METAR KMMU 190435Z AUTO 00000KT 1/2SM FG OVC004 05/05 A2941 RMK AO2 =
2017-11-18 23:15 METAR KMMU 190415Z AUTO 00000KT 1/2SM FG VV005 05/05 A2942 RMK AO2 =
2017-11-18 22:55 METAR KMMU 190355Z AUTO 00000KT 1SM BR VV007 05/05 A2943 RMK AO2 =
2017-11-18 22:35 METAR KMMU 190335Z AUTO 00000KT 1 1/2SM BR SCT120 06/06 A2945 RMK AO2 =
2017-11-18 22:15 METAR KMMU 190315Z AUTO 00000KT 2SM BR SCT120 06/06 A2946 RMK AO2 =
2017-11-18 21:55 METAR KMMU 190255Z AUTO 00000KT 2SM BR CLR 06/06 A2949 RMK AO2 =
2017-11-18 21:46 METAR KMMU 190246Z 05003KT 7SM -RA OVC120 06/06 A2950 =
2017-11-18 21:35 METAR KMMU 190235Z AUTO 00000KT 2SM BR SCT060 SCT070 BKN095 06/06 A2951 RMK AO2
                 P0001 =
2017-11-18 20:45 METAR KMMU 190145Z COR 00000KT 7SM -RA OVC090 06/06 A2953 =
2017-11-18 19:45 METAR KMMU 190045Z 00000KT 7SM -RA BKN060 06/06 A2958 =
2017-11-18 18:45 METAR KMMU 182345Z 00000KT 4SM -RA BR SCT037 SCT050 OVC080 06/06 A2962 =
2017-11-18 17:45 METAR KMMU 182245Z 00000KT 4SM -RA BR SCT035 SCT060 OVC100 06/06 A2965 =
2017-11-18 16:55 METAR KMMU 182155Z 00000KT 10SM -RA BR OVC100 06/06 A2965 =
2017-11-18 15:45 METAR KMMU 182045Z 00000KT 10SM -RA BR SCT046 OVC100 08/06 A2967 =
2017-11-18 14:45 METAR KMMU 181945Z 00000KT 10SM BKN070 OVC085 09/04 A2969 =
2017-11-18 13:45 METAR KMMU 181845Z 21004KT 10SM BKN095 OVC120 08/04 A2972 =
2017-11-18 12:46 METAR KMMU 181746Z 21007G13KT 10SM OVC095 08/02 A2976 =
2017-11-18 12:45 METAR KMMU 181745Z 21007G13KT 10SM OVC095 08/M02 A2976 =
2017-11-18 11:45 METAR KMMU 181645Z 00000KT 10SM BKN120 05/M01 A2982 =
2017-11-18 10:50 METAR KMMU 181550Z 00000KT 10SM BKN120 01/M03 A2989 =
2017-11-18 09:55 METAR KMMU 181455Z 00000KT 10SM BKN120 00/M02 A2992 =
2017-11-18 08:45 METAR KMMU 181345Z 00000KT 10SM FEW150 BKN250 M02/M03 A2996 =
2017-11-18 07:45 METAR KMMU 181245Z 00000KT 10SM FEW150 BKN250 M03/M04 A2997 =
2017-11-18 06:45 METAR KMMU 181145Z 00000KT 10SM FEW150 BKN250 M04/M05 A2999 =
2017-11-18 05:35 METAR KMMU 181035Z AUTO 00000KT 10SM CLR M05/M05 A3000 RMK AO2 =
2017-11-18 05:15 METAR KMMU 181015Z AUTO 00000KT 10SM CLR M05/M05 A3000 RMK AO2 =
2017-11-18 04:55 METAR KMMU 180955Z AUTO 00000KT 10SM CLR M05/M05 A3000 RMK AO2 =
2017-11-18 04:35 METAR KMMU 180935Z AUTO 00000KT 10SM CLR M05/M05 A3001 RMK AO2 =
2017-11-18 04:15 METAR KMMU 180915Z AUTO 00000KT 10SM CLR M05/M06 A3002 RMK AO2 =
2017-11-18 03:55 METAR KMMU 180855Z AUTO 00000KT 10SM CLR M05/M05 A3000 RMK AO2 =
2017-11-18 03:35 METAR KMMU 180835Z AUTO 00000KT 10SM CLR M05/M05 A3001 RMK AO2 =
2017-11-18 03:15 METAR KMMU 180815Z AUTO 00000KT 10SM CLR M04/M05 A3002 RMK AO2 =
2017-11-18 02:55 METAR KMMU 180755Z AUTO 00000KT 10SM CLR M05/M05 A3002 RMK AO2 =
2017-11-18 02:35 METAR KMMU 180735Z AUTO 00000KT 10SM CLR M04/M05 A3002 RMK AO2 =
2017-11-18 02:15 METAR KMMU 180715Z AUTO 00000KT 10SM CLR M04/M05 A3004 RMK AO2 =
2017-11-18 01:55 METAR KMMU 180655Z AUTO 00000KT 10SM CLR M04/M05 A3004 RMK AO2 =
2017-11-18 01:35 METAR KMMU 180635Z AUTO 00000KT 10SM CLR M04/M04 A3005 RMK AO2 =
2017-11-18 01:15 METAR KMMU 180615Z AUTO 00000KT 10SM CLR M04/M05 A3004 RMK AO2 =
2017-11-18 00:55 METAR KMMU 180555Z AUTO 00000KT 10SM CLR M04/M05 A3005 RMK AO2 =
2017-11-18 00:35 METAR KMMU 180535Z AUTO 00000KT 10SM CLR M04/M05 A3006 RMK AO2 =
2017-11-18 00:15 METAR KMMU 180515Z AUTO 00000KT 10SM CLR M04/M05 A3007 RMK AO2 =

Support USWX by starting your Amazon purchase here.